sensor_id;sensor_type;location;lat;lon;timestamp;pressure;altitude;pressure_sealevel;temperature;humidity
60725;BME280;59881;36.722;-4.462;2022-11-22T00:00:58;101107.94;;;14.55;60.50
60725;BME280;59881;36.722;-4.462;2022-11-22T00:03:24;101294.75;;;16.34;60.58
60725;BME280;59881;36.722;-4.462;2022-11-22T00:05:49;101271.72;;;16.12;60.97
60725;BME280;59881;36.722;-4.462;2022-11-22T00:08:15;101435.78;;;16.33;61.19
60725;BME280;59881;36.722;-4.462;2022-11-22T00:10:40;101329.53;;;16.31;61.23
60725;BME280;59881;36.722;-4.462;2022-11-22T00:13:06;101312.88;;;16.29;61.63
60725;BME280;59881;36.722;-4.462;2022-11-22T00:15:31;101311.31;;;16.27;61.58
60725;BME280;59881;36.722;-4.462;2022-11-22T00:17:57;101080.47;;;14.79;61.61
60725;BME280;59881;36.722;-4.462;2022-11-22T00:20:23;101283.94;;;16.04;61.91
60725;BME280;59881;36.722;-4.462;2022-11-22T00:22:48;101222.13;;;15.68;61.99
60725;BME280;59881;36.722;-4.462;2022-11-22T00:25:14;100987.25;;;14.27;62.01
60725;BME280;59881;36.722;-4.462;2022-11-22T00:27:39;100558.09;;;11.66;61.65
60725;BME280;59881;36.722;-4.462;2022-11-22T00:30:06;101301.03;;;16.22;61.89
60725;BME280;59881;36.722;-4.462;2022-11-22T00:32:32;101293.91;;;16.23;61.86
60725;BME280;59881;36.722;-4.462;2022-11-22T00:34:58;101242.16;;;15.95;61.85
60725;BME280;59881;36.722;-4.462;2022-11-22T00:37:23;101284.97;;;16.24;61.40
60725;BME280;59881;36.722;-4.462;2022-11-22T00:39:49;101298.28;;;16.24;61.39
60725;BME280;59881;36.722;-4.462;2022-11-22T00:42:14;101141.03;;;15.41;60.94
60725;BME280;59881;36.722;-4.462;2022-11-22T00:44:40;101282.81;;;16.18;61.11
60725;BME280;59881;36.722;-4.462;2022-11-22T00:47:05;101038.66;;;14.71;60.98
60725;BME280;59881;36.722;-4.462;2022-11-22T00:49:31;100849.66;;;13.56;61.08
60725;BME280;59881;36.722;-4.462;2022-11-22T00:51:57;101270.88;;;16.12;61.28
60725;BME280;59881;36.722;-4.462;2022-11-22T00:54:22;101268.34;;;16.10;61.16
60725;BME280;59881;36.722;-4.462;2022-11-22T00:56:47;101261.47;;;16.08;61.18
60725;BME280;59881;36.722;-4.462;2022-11-22T00:59:13;101208.69;;;15.69;60.76
60725;BME280;59881;36.722;-4.462;2022-11-22T01:01:38;100966.66;;;14.19;60.78
60725;BME280;59881;36.722;-4.462;2022-11-22T01:04:04;101264.00;;;15.98;60.85
60725;BME280;59881;36.722;-4.462;2022-11-22T01:06:30;101245.06;;;15.80;60.80
60725;BME280;59881;36.722;-4.462;2022-11-22T01:08:55;101240.84;;;15.78;60.54
60725;BME280;59881;36.722;-4.462;2022-11-22T01:11:21;101340.69;;;15.91;60.61
60725;BME280;59881;36.722;-4.462;2022-11-22T01:13:46;101270.88;;;15.89;60.95
60725;BME280;59881;36.722;-4.462;2022-11-22T01:16:12;101258.59;;;15.88;61.06
60725;BME280;59881;36.722;-4.462;2022-11-22T01:18:38;101255.09;;;15.88;61.03
60725;BME280;59881;36.722;-4.462;2022-11-22T01:21:04;100326.72;;;10.24;60.68
60725;BME280;59881;36.722;-4.462;2022-11-22T01:23:31;101127.28;;;15.14;60.86
60725;BME280;59881;36.722;-4.462;2022-11-22T01:25:57;101200.41;;;15.74;60.73
60725;BME280;59881;36.722;-4.462;2022-11-22T01:28:23;101265.94;;;15.62;60.53
60725;BME280;59881;36.722;-4.462;2022-11-22T01:30:49;100766.53;;;13.01;59.96
60725;BME280;59881;36.722;-4.462;2022-11-22T01:33:15;100777.97;;;13.13;60.04
60725;BME280;59881;36.722;-4.462;2022-11-22T01:35:41;101247.22;;;15.86;60.14
60725;BME280;59881;36.722;-4.462;2022-11-22T01:38:07;101246.63;;;15.83;60.14
60725;BME280;59881;36.722;-4.462;2022-11-22T01:40:33;101228.03;;;15.60;60.16
60725;BME280;59881;36.722;-4.462;2022-11-22T01:42:59;101261.38;;;15.76;60.53
60725;BME280;59881;36.722;-4.462;2022-11-22T01:50:52;101312.97;;;15.26;60.23
60725;BME280;59881;36.722;-4.462;2022-11-22T01:53:26;101251.69;;;15.63;60.49
60725;BME280;59881;36.722;-4.462;2022-11-22T01:55:52;101269.19;;;15.66;60.09
60725;BME280;59881;36.722;-4.462;2022-11-22T01:58:20;101042.81;;;14.40;59.87
60725;BME280;59881;36.722;-4.462;2022-11-22T02:00:47;101011.00;;;14.17;60.15
60725;BME280;59881;36.722;-4.462;2022-11-22T02:03:14;101253.75;;;15.60;60.27
60725;BME280;59881;36.722;-4.462;2022-11-22T02:05:40;101236.97;;;15.37;60.52
60725;BME280;59881;36.722;-4.462;2022-11-22T02:10:55;101262.19;;;15.53;60.76
60725;BME280;59881;36.722;-4.462;2022-11-22T02:13:22;101238.91;;;15.57;60.53
60725;BME280;59881;36.722;-4.462;2022-11-22T02:15:50;100744.16;;;12.58;60.49
60725;BME280;59881;36.722;-4.462;2022-11-22T02:18:16;101173.38;;;15.24;60.68
60725;BME280;59881;36.722;-4.462;2022-11-22T02:20:42;101221.53;;;15.42;60.40
60725;BME280;59881;36.722;-4.462;2022-11-22T02:25:57;101475.66;;;15.64;60.11
60725;BME280;59881;36.722;-4.462;2022-11-22T02:28:24;101153.72;;;15.15;60.30
60725;BME280;59881;36.722;-4.462;2022-11-22T02:30:50;101242.03;;;15.62;60.37
60725;BME280;59881;36.722;-4.462;2022-11-22T02:33:16;101208.34;;;15.63;60.39
60725;BME280;59881;36.722;-4.462;2022-11-22T02:35:42;101213.53;;;15.64;60.47
60725;BME280;59881;36.722;-4.462;2022-11-22T02:38:12;101125.09;;;15.07;60.43
60725;BME280;59881;36.722;-4.462;2022-11-22T02:40:45;101136.94;;;15.15;60.78
60725;BME280;59881;36.722;-4.462;2022-11-22T02:43:19;101215.72;;;15.59;60.82
60725;BME280;59881;36.722;-4.462;2022-11-22T02:45:46;101169.16;;;15.32;60.84
60725;BME280;59881;36.722;-4.462;2022-11-22T02:48:14;100724.53;;;12.50;60.87
60725;BME280;59881;36.722;-4.462;2022-11-22T02:50:40;101189.19;;;15.37;61.07
60725;BME280;59881;36.722;-4.462;2022-11-22T02:53:07;101224.06;;;15.55;61.25
60725;BME280;59881;36.722;-4.462;2022-11-22T02:55:33;101227.66;;;15.53;61.21
60725;BME280;59881;36.722;-4.462;2022-11-22T02:57:59;101197.38;;;15.34;61.32
60725;BME280;59881;36.722;-4.462;2022-11-22T03:00:25;101220.91;;;15.49;61.67
60725;BME280;59881;36.722;-4.462;2022-11-22T03:02:51;100766.03;;;12.60;61.66
60725;BME280;59881;36.722;-4.462;2022-11-22T03:05:16;101015.19;;;14.08;61.74
60725;BME280;59881;36.722;-4.462;2022-11-22T03:07:42;101235.63;;;15.42;62.11
60725;BME280;59881;36.722;-4.462;2022-11-22T03:10:08;100823.53;;;12.81;61.98
60725;BME280;59881;36.722;-4.462;2022-11-22T03:12:33;101203.28;;;15.15;62.07
60725;BME280;59881;36.722;-4.462;2022-11-22T03:14:59;101197.97;;;15.15;62.36
60725;BME280;59881;36.722;-4.462;2022-11-22T03:17:25;101225.84;;;15.31;62.46
60725;BME280;59881;36.722;-4.462;2022-11-22T03:19:50;100743.09;;;12.37;62.25
60725;BME280;59881;36.722;-4.462;2022-11-22T03:22:16;101121.69;;;14.60;62.44
60725;BME280;59881;36.722;-4.462;2022-11-22T03:24:41;101222.97;;;15.23;62.56
60725;BME280;59881;36.722;-4.462;2022-11-22T03:27:07;100249.66;;;9.33;62.54
60725;BME280;59881;36.722;-4.462;2022-11-22T03:29:32;101126.63;;;14.65;62.95
60725;BME280;59881;36.722;-4.462;2022-11-22T03:31:58;101251.66;;;15.18;63.02
60725;BME280;59881;36.722;-4.462;2022-11-22T03:34:23;101242.75;;;15.19;63.22
60725;BME280;59881;36.722;-4.462;2022-11-22T03:36:49;101211.84;;;15.18;63.27
60725;BME280;59881;36.722;-4.462;2022-11-22T03:39:14;101146.66;;;14.80;63.10
60725;BME280;59881;36.722;-4.462;2022-11-22T03:41:40;101143.19;;;14.80;63.24
60725;BME280;59881;36.722;-4.462;2022-11-22T03:44:06;101073.06;;;14.37;63.20
60725;BME280;59881;36.722;-4.462;2022-11-22T03:46:31;101204.75;;;15.19;63.27
60725;BME280;59881;36.722;-4.462;2022-11-22T03:48:57;101189.66;;;15.19;63.23
60725;BME280;59881;36.722;-4.462;2022-11-22T03:51:22;101101.47;;;14.71;63.24
60725;BME280;59881;36.722;-4.462;2022-11-22T03:53:48;101132.34;;;14.94;63.33
60725;BME280;59881;36.722;-4.462;2022-11-22T03:56:13;101166.72;;;15.18;63.35
60725;BME280;59881;36.722;-4.462;2022-11-22T03:58:39;100942.88;;;13.84;63.30
60725;BME280;59881;36.722;-4.462;2022-11-22T04:01:05;101159.84;;;15.16;63.40
60725;BME280;59881;36.722;-4.462;2022-11-22T04:03:30;101149.50;;;15.13;63.30
60725;BME280;59881;36.722;-4.462;2022-11-22T04:05:56;100371.16;;;10.41;63.17
60725;BME280;59881;36.722;-4.462;2022-11-22T04:08:21;101116.91;;;14.88;63.43
60725;BME280;59881;36.722;-4.462;2022-11-22T04:10:48;101072.88;;;14.63;63.39
60725;BME280;59881;36.722;-4.462;2022-11-22T04:13:14;101140.81;;;14.99;63.70
60725;BME280;59881;36.722;-4.462;2022-11-22T04:15:39;101020.03;;;14.26;63.66
60725;BME280;59881;36.722;-4.462;2022-11-22T04:18:08;101255.25;;;14.95;64.13
60725;BME280;59881;36.722;-4.462;2022-11-22T04:20:34;100663.69;;;12.03;63.55
60725;BME280;59881;36.722;-4.462;2022-11-22T04:23:20;101148.50;;;14.91;63.72
60725;BME280;59881;36.722;-4.462;2022-11-22T04:25:48;101198.22;;;14.65;63.70
60725;BME280;59881;36.722;-4.462;2022-11-22T04:28:15;101139.94;;;14.87;64.18
60725;BME280;59881;36.722;-4.462;2022-11-22T04:30:42;101163.22;;;14.84;64.03
60725;BME280;59881;36.722;-4.462;2022-11-22T04:33:26;101155.72;;;14.78;63.74
60725;BME280;59881;36.722;-4.462;2022-11-22T04:35:52;101154.16;;;14.75;64.34
60725;BME280;59881;36.722;-4.462;2022-11-22T04:38:18;100937.09;;;13.43;64.35
60725;BME280;59881;36.722;-4.462;2022-11-22T04:40:44;100683.47;;;11.85;64.40
60725;BME280;59881;36.722;-4.462;2022-11-22T04:43:17;100582.63;;;11.31;64.42
60725;BME280;59881;36.722;-4.462;2022-11-22T04:46:01;101003.91;;;13.82;64.45
60725;BME280;59881;36.722;-4.462;2022-11-22T04:48:27;101112.78;;;14.26;64.59
60725;BME280;59881;36.722;-4.462;2022-11-22T04:50:52;101146.91;;;14.66;64.59
60725;BME280;59881;36.722;-4.462;2022-11-22T04:53:36;101152.31;;;14.64;64.39
60725;BME280;59881;36.722;-4.462;2022-11-22T04:56:02;101023.63;;;13.78;64.39
60725;BME280;59881;36.722;-4.462;2022-11-22T04:58:28;101120.78;;;14.37;64.53
60725;BME280;59881;36.722;-4.462;2022-11-22T05:00:53;101171.34;;;14.58;64.26
60725;BME280;59881;36.722;-4.462;2022-11-22T05:03:19;101132.31;;;14.36;64.10
60725;BME280;59881;36.722;-4.462;2022-11-22T05:05:44;101267.63;;;14.35;64.27
60725;BME280;59881;36.722;-4.462;2022-11-22T05:08:11;101167.97;;;14.56;63.96
60725;BME280;59881;36.722;-4.462;2022-11-22T05:10:37;101166.28;;;14.55;63.87
60725;BME280;59881;36.722;-4.462;2022-11-22T05:13:29;101106.72;;;14.13;63.88
60725;BME280;59881;36.722;-4.462;2022-11-22T05:15:55;101182.38;;;14.52;63.94
60725;BME280;59881;36.722;-4.462;2022-11-22T05:18:21;100646.13;;;11.28;63.58
60725;BME280;59881;36.722;-4.462;2022-11-22T05:20:47;101181.63;;;14.50;63.73
60725;BME280;59881;36.722;-4.462;2022-11-22T05:23:13;101186.94;;;14.50;63.83
60725;BME280;59881;36.722;-4.462;2022-11-22T05:25:58;101261.69;;;14.31;63.87
60725;BME280;59881;36.722;-4.462;2022-11-22T05:28:27;101178.97;;;14.50;63.77
60725;BME280;59881;36.722;-4.462;2022-11-22T05:30:54;101081.00;;;13.91;63.76
60725;BME280;59881;36.722;-4.462;2022-11-22T05:33:19;100875.31;;;11.84;63.82
60725;BME280;59881;36.722;-4.462;2022-11-22T05:35:45;101186.94;;;14.50;63.86
60725;BME280;59881;36.722;-4.462;2022-11-22T05:38:10;101189.72;;;14.48;63.89
60725;BME280;59881;36.722;-4.462;2022-11-22T05:40:35;101317.03;;;14.23;63.86
60725;BME280;59881;36.722;-4.462;2022-11-22T05:43:01;101287.78;;;14.24;63.91
60725;BME280;59881;36.722;-4.462;2022-11-22T05:45:26;101208.88;;;14.52;64.03
60725;BME280;59881;36.722;-4.462;2022-11-22T05:47:52;101196.50;;;14.53;64.01
60725;BME280;59881;36.722;-4.462;2022-11-22T05:50:17;100824.91;;;12.26;63.82
60725;BME280;59881;36.722;-4.462;2022-11-22T05:52:43;101176.44;;;14.37;64.03
60725;BME280;59881;36.722;-4.462;2022-11-22T05:55:08;101201.41;;;14.46;64.20
60725;BME280;59881;36.722;-4.462;2022-11-22T05:57:34;101199.69;;;14.45;64.26
60725;BME280;59881;36.722;-4.462;2022-11-22T05:59:59;100946.69;;;12.96;64.20
60725;BME280;59881;36.722;-4.462;2022-11-22T06:02:25;101188.16;;;14.46;64.32
60725;BME280;59881;36.722;-4.462;2022-11-22T06:04:50;101191.75;;;14.45;64.20
60725;BME280;59881;36.722;-4.462;2022-11-22T06:07:16;101123.84;;;13.96;64.18
60725;BME280;59881;36.722;-4.462;2022-11-22T06:09:41;100759.06;;;11.73;64.37
60725;BME280;59881;36.722;-4.462;2022-11-22T06:12:07;100770.72;;;11.45;64.35
60725;BME280;59881;36.722;-4.462;2022-11-22T06:14:33;101107.63;;;13.76;64.68
60725;BME280;59881;36.722;-4.462;2022-11-22T06:16:58;101194.13;;;14.37;64.68
60725;BME280;59881;36.722;-4.462;2022-11-22T06:19:24;101211.84;;;14.36;64.83
60725;BME280;59881;36.722;-4.462;2022-11-22T06:21:49;101155.16;;;13.91;64.69
60725;BME280;59881;36.722;-4.462;2022-11-22T06:24:15;101082.66;;;13.43;64.71
60725;BME280;59881;36.722;-4.462;2022-11-22T06:26:40;101212.28;;;14.30;64.62
60725;BME280;59881;36.722;-4.462;2022-11-22T06:29:06;101165.25;;;13.97;64.64
60725;BME280;59881;36.722;-4.462;2022-11-22T06:31:31;101447.53;;;14.26;64.89
60725;BME280;59881;36.722;-4.462;2022-11-22T06:33:58;101220.72;;;14.24;65.10
60725;BME280;59881;36.722;-4.462;2022-11-22T06:36:32;101220.31;;;14.17;65.41
60725;BME280;59881;36.722;-4.462;2022-11-22T06:38:58;101215.22;;;14.14;65.47
60725;BME280;59881;36.722;-4.462;2022-11-22T06:41:27;101224.13;;;14.13;65.49
60725;BME280;59881;36.722;-4.462;2022-11-22T06:43:54;101155.41;;;13.75;65.36
60725;BME280;59881;36.722;-4.462;2022-11-22T06:46:23;101146.34;;;13.66;65.56
60725;BME280;59881;36.722;-4.462;2022-11-22T06:48:50;100801.63;;;11.55;65.08
60725;BME280;59881;36.722;-4.462;2022-11-22T06:51:24;101279.56;;;13.79;65.63
60725;BME280;59881;36.722;-4.462;2022-11-22T06:53:50;101231.19;;;14.01;65.46
60725;BME280;59881;36.722;-4.462;2022-11-22T06:56:17;101245.28;;;14.02;65.35
60725;BME280;59881;36.722;-4.462;2022-11-22T06:58:43;100791.88;;;11.17;64.84
60725;BME280;59881;36.722;-4.462;2022-11-22T07:01:14;101113.28;;;13.22;64.46
60725;BME280;59881;36.722;-4.462;2022-11-22T07:03:41;100936.06;;;12.23;64.04
60725;BME280;59881;36.722;-4.462;2022-11-22T07:06:08;101102.38;;;13.14;63.44
60725;BME280;59881;36.722;-4.462;2022-11-22T07:08:34;101247.47;;;14.08;63.38
60725;BME280;59881;36.722;-4.462;2022-11-22T07:11:04;100830.22;;;11.49;63.24
60725;BME280;59881;36.722;-4.462;2022-11-22T07:13:30;101321.53;;;14.10;63.00
60725;BME280;59881;36.722;-4.462;2022-11-22T07:15:57;101037.69;;;12.68;62.70
60725;BME280;59881;36.722;-4.462;2022-11-22T07:18:23;101136.03;;;13.24;62.74
60725;BME280;59881;36.722;-4.462;2022-11-22T07:20:48;101216.16;;;13.39;62.92
60725;BME280;59881;36.722;-4.462;2022-11-22T07:23:14;101397.84;;;14.17;62.98
60725;BME280;59881;36.722;-4.462;2022-11-22T07:25:47;101235.53;;;13.90;63.03
60725;BME280;59881;36.722;-4.462;2022-11-22T07:28:14;101232.47;;;13.96;62.91
60725;BME280;59881;36.722;-4.462;2022-11-22T07:30:41;101249.00;;;13.99;62.66
60725;BME280;59881;36.722;-4.462;2022-11-22T07:33:07;100842.56;;;11.48;62.69
60725;BME280;59881;36.722;-4.462;2022-11-22T07:35:34;101301.78;;;14.26;62.47
60725;BME280;59881;36.722;-4.462;2022-11-22T07:37:59;101278.06;;;14.12;62.35
60725;BME280;59881;36.722;-4.462;2022-11-22T07:40:25;100984.38;;;11.72;62.18
60725;BME280;59881;36.722;-4.462;2022-11-22T07:42:50;101324.53;;;14.42;62.08
60725;BME280;59881;36.722;-4.462;2022-11-22T07:45:16;101276.47;;;14.22;61.90
60725;BME280;59881;36.722;-4.462;2022-11-22T07:47:41;100821.38;;;11.50;61.58
60725;BME280;59881;36.722;-4.462;2022-11-22T07:50:07;100825.06;;;11.60;61.25
60725;BME280;59881;36.722;-4.462;2022-11-22T07:52:33;101336.31;;;14.75;61.21
60725;BME280;59881;36.722;-4.462;2022-11-22T07:54:58;101250.47;;;14.27;60.84
60725;BME280;59881;36.722;-4.462;2022-11-22T07:57:24;101335.56;;;14.97;60.44
60725;BME280;59881;36.722;-4.462;2022-11-22T07:59:49;101271.19;;;14.71;59.85
60725;BME280;59881;36.722;-4.462;2022-11-22T08:02:15;100912.84;;;12.65;58.99
60725;BME280;59881;36.722;-4.462;2022-11-22T08:04:41;101311.13;;;15.16;58.76
60725;BME280;59881;36.722;-4.462;2022-11-22T08:07:06;100936.63;;;13.01;58.33
60725;BME280;59881;36.722;-4.462;2022-11-22T08:09:32;101354.28;;;15.53;57.84
60725;BME280;59881;36.722;-4.462;2022-11-22T08:11:57;101362.53;;;15.61;57.69
60725;BME280;59881;36.722;-4.462;2022-11-22T08:14:23;101295.50;;;15.35;57.18
60725;BME280;59881;36.722;-4.462;2022-11-22T08:16:49;101352.78;;;15.73;56.83
60725;BME280;59881;36.722;-4.462;2022-11-22T08:19:14;101360.16;;;15.81;56.44
60725;BME280;59881;36.722;-4.462;2022-11-22T08:21:42;101338.00;;;15.69;56.21
60725;BME280;59881;36.722;-4.462;2022-11-22T08:24:07;101366.31;;;15.92;56.13
60725;BME280;59881;36.722;-4.462;2022-11-22T08:26:33;100641.34;;;11.46;55.46
60725;BME280;59881;36.722;-4.462;2022-11-22T08:28:59;101258.44;;;15.34;55.61
60725;BME280;59881;36.722;-4.462;2022-11-22T08:31:26;100877.78;;;13.11;54.83
60725;BME280;59881;36.722;-4.462;2022-11-22T08:33:52;101397.13;;;16.18;54.58
60725;BME280;59881;36.722;-4.462;2022-11-22T08:36:18;101400.03;;;16.26;54.68
60725;BME280;59881;36.722;-4.462;2022-11-22T08:38:43;101336.72;;;15.97;54.28
60725;BME280;59881;36.722;-4.462;2022-11-22T08:41:09;101366.28;;;16.38;53.82
60725;BME280;59881;36.722;-4.462;2022-11-22T08:43:35;100547.06;;;11.61;53.39
60725;BME280;59881;36.722;-4.462;2022-11-22T08:46:00;101383.09;;;16.93;53.03
60725;BME280;59881;36.722;-4.462;2022-11-22T08:48:27;101386.38;;;17.17;52.56
60725;BME280;59881;36.722;-4.462;2022-11-22T08:50:55;101382.78;;;17.40;51.75
60725;BME280;59881;36.722;-4.462;2022-11-22T08:53:22;101353.78;;;17.46;51.22
60725;BME280;59881;36.722;-4.462;2022-11-22T08:55:47;101383.56;;;17.93;50.53
60725;BME280;59881;36.722;-4.462;2022-11-22T08:58:13;101349.78;;;17.31;49.64
60725;BME280;59881;36.722;-4.462;2022-11-22T09:00:39;101403.66;;;18.38;49.36
60725;BME280;59881;36.722;-4.462;2022-11-22T09:03:04;101414.34;;;18.48;48.65
60725;BME280;59881;36.722;-4.462;2022-11-22T09:05:30;101280.03;;;17.77;48.43
60725;BME280;59881;36.722;-4.462;2022-11-22T09:07:56;101429.09;;;19.02;47.42
60725;BME280;59881;36.722;-4.462;2022-11-22T09:10:22;101440.63;;;19.51;45.92
60725;BME280;59881;36.722;-4.462;2022-11-22T09:12:48;101419.59;;;19.95;45.07
60725;BME280;59881;36.722;-4.462;2022-11-22T09:15:14;101019.28;;;18.31;43.46
60725;BME280;59881;36.722;-4.462;2022-11-22T09:17:42;101416.69;;;22.05;41.48
60725;BME280;59881;36.722;-4.462;2022-11-22T09:20:08;101447.00;;;24.30;37.65
60725;BME280;59881;36.722;-4.462;2022-11-22T09:22:34;101007.41;;;23.38;33.70
60725;BME280;59881;36.722;-4.462;2022-11-22T09:25:00;101438.94;;;28.65;29.80
60725;BME280;59881;36.722;-4.462;2022-11-22T09:27:25;101432.41;;;29.74;27.04
60725;BME280;59881;36.722;-4.462;2022-11-22T09:29:51;101411.06;;;30.88;25.22
60725;BME280;59881;36.722;-4.462;2022-11-22T09:32:17;101410.63;;;34.13;22.05
60725;BME280;59881;36.722;-4.462;2022-11-22T09:34:42;101362.13;;;35.68;20.12
60725;BME280;59881;36.722;-4.462;2022-11-22T09:37:08;101409.53;;;36.29;19.32
60725;BME280;59881;36.722;-4.462;2022-11-22T09:39:33;101409.03;;;36.86;18.15
60725;BME280;59881;36.722;-4.462;2022-11-22T09:50:17;101382.44;;;39.58;16.29
60725;BME280;59881;36.722;-4.462;2022-11-22T09:53:03;100909.03;;;38.61;14.66
60725;BME280;59881;36.722;-4.462;2022-11-22T09:55:39;101103.66;;;41.25;14.26
60725;BME280;59881;36.722;-4.462;2022-11-22T09:58:45;101371.97;;;44.20;12.25
60725;BME280;59881;36.722;-4.462;2022-11-22T10:03:54;101138.84;;;42.97;11.55
60725;BME280;59881;36.722;-4.462;2022-11-22T10:06:28;101119.69;;;42.45;12.53
60725;BME280;59881;36.722;-4.462;2022-11-22T10:20:00;101465.25;;;33.43;18.93
60725;BME280;59881;36.722;-4.462;2022-11-22T10:22:28;101479.34;;;29.35;23.28
60725;BME280;59881;36.722;-4.462;2022-11-22T10:24:57;101558.66;;;26.75;26.41
60725;BME280;59881;36.722;-4.462;2022-11-22T10:27:28;101486.78;;;25.53;28.74
60725;BME280;59881;36.722;-4.462;2022-11-22T10:30:00;101500.13;;;24.53;29.63
60725;BME280;59881;36.722;-4.462;2022-11-22T10:35:32;101485.28;;;23.44;32.05
60725;BME280;59881;36.722;-4.462;2022-11-22T10:46:19;101485.66;;;27.48;26.28
60725;BME280;59881;36.722;-4.462;2022-11-22T10:49:22;101466.25;;;25.67;28.63
60725;BME280;59881;36.722;-4.462;2022-11-22T10:55:25;101506.81;;;23.93;30.88
60725;BME280;59881;36.722;-4.462;2022-11-22T11:00:28;101542.41;;;22.79;32.13
60725;BME280;59881;36.722;-4.462;2022-11-22T11:05:57;101499.03;;;23.16;32.25
60725;BME280;59881;36.722;-4.462;2022-11-22T11:10:55;101464.88;;;22.92;32.58
60725;BME280;59881;36.722;-4.462;2022-11-22T11:13:28;101515.53;;;23.46;32.00
60725;BME280;59881;36.722;-4.462;2022-11-22T11:15:58;101507.28;;;23.31;32.25
60725;BME280;59881;36.722;-4.462;2022-11-22T11:18:30;101497.91;;;22.76;32.91
60725;BME280;59881;36.722;-4.462;2022-11-22T11:20:57;101235.81;;;20.51;33.73
60725;BME280;59881;36.722;-4.462;2022-11-22T11:23:22;101497.44;;;21.40;35.04
60725;BME280;59881;36.722;-4.462;2022-11-22T11:25:48;101492.84;;;20.97;35.88
60725;BME280;59881;36.722;-4.462;2022-11-22T11:28:16;101491.00;;;20.70;36.55
60725;BME280;59881;36.722;-4.462;2022-11-22T11:30:49;101490.47;;;20.56;37.05
60725;BME280;59881;36.722;-4.462;2022-11-22T11:33:25;101477.72;;;20.40;37.44
60725;BME280;59881;36.722;-4.462;2022-11-22T11:36:12;101446.56;;;20.12;37.43
60725;BME280;59881;36.722;-4.462;2022-11-22T11:41:30;101065.28;;;17.55;38.27
60725;BME280;59881;36.722;-4.462;2022-11-22T11:44:04;101469.84;;;20.01;38.46
60725;BME280;59881;36.722;-4.462;2022-11-22T11:49:14;101466.16;;;20.02;38.20
60725;BME280;59881;36.722;-4.462;2022-11-22T11:51:45;100995.31;;;17.24;37.98
60725;BME280;59881;36.722;-4.462;2022-11-22T11:54:21;101413.38;;;20.04;38.13
60725;BME280;59881;36.722;-4.462;2022-11-22T11:57:34;101465.69;;;20.64;37.63
60725;BME280;59881;36.722;-4.462;2022-11-22T12:02:32;100892.81;;;17.96;36.46
60725;BME280;59881;36.722;-4.462;2022-11-22T12:05:29;101434.03;;;21.93;35.29
60725;BME280;59881;36.722;-4.462;2022-11-22T12:07:55;101377.31;;;21.80;34.72
60725;BME280;59881;36.722;-4.462;2022-11-22T12:10:35;101447.78;;;22.50;34.21
60725;BME280;59881;36.722;-4.462;2022-11-22T12:16:25;101441.50;;;22.84;33.31
60725;BME280;59881;36.722;-4.462;2022-11-22T12:24:28;101435.81;;;22.45;33.82
60725;BME280;59881;36.722;-4.462;2022-11-22T12:26:56;101395.34;;;22.30;33.68
60725;BME280;59881;36.722;-4.462;2022-11-22T12:29:22;101424.44;;;22.43;33.84
60725;BME280;59881;36.722;-4.462;2022-11-22T12:32:22;101417.81;;;22.29;34.30
60725;BME280;59881;36.722;-4.462;2022-11-22T12:35:13;101289.56;;;21.64;34.40
60725;BME280;59881;36.722;-4.462;2022-11-22T12:37:45;101327.63;;;22.02;33.68
60725;BME280;59881;36.722;-4.462;2022-11-22T12:40:16;101396.91;;;22.49;32.74
60725;BME280;59881;36.722;-4.462;2022-11-22T12:43:04;101391.34;;;22.34;33.10
60725;BME280;59881;36.722;-4.462;2022-11-22T12:45:35;101397.66;;;22.25;33.36
60725;BME280;59881;36.722;-4.462;2022-11-22T12:48:06;101348.72;;;21.97;33.54
60725;BME280;59881;36.722;-4.462;2022-11-22T12:50:47;101387.28;;;21.96;33.83
60725;BME280;59881;36.722;-4.462;2022-11-22T12:53:18;101417.72;;;21.60;33.77
60725;BME280;59881;36.722;-4.462;2022-11-22T12:55:58;101300.78;;;21.15;33.99
60725;BME280;59881;36.722;-4.462;2022-11-22T13:03:48;101344.38;;;20.99;35.02
60725;BME280;59881;36.722;-4.462;2022-11-22T13:06:18;101446.16;;;21.35;34.98
60725;BME280;59881;36.722;-4.462;2022-11-22T13:08:57;101345.53;;;21.41;34.81
60725;BME280;59881;36.722;-4.462;2022-11-22T13:11:48;101350.41;;;21.63;34.67
60725;BME280;59881;36.722;-4.462;2022-11-22T13:14:18;101360.56;;;21.86;34.67
60725;BME280;59881;36.722;-4.462;2022-11-22T13:16:45;101364.50;;;21.74;34.00
60725;BME280;59881;36.722;-4.462;2022-11-22T13:19:13;101366.31;;;21.65;34.03
60725;BME280;59881;36.722;-4.462;2022-11-22T13:24:36;101361.84;;;21.47;33.87
60725;BME280;59881;36.722;-4.462;2022-11-22T13:27:19;101289.75;;;21.18;34.52
60725;BME280;59881;36.722;-4.462;2022-11-22T13:29:46;101390.63;;;21.27;34.13
60725;BME280;59881;36.722;-4.462;2022-11-22T13:32:16;101355.84;;;21.54;34.36
60725;BME280;59881;36.722;-4.462;2022-11-22T13:35:15;101346.66;;;21.56;34.32
60725;BME280;59881;36.722;-4.462;2022-11-22T13:37:48;100980.00;;;19.34;34.60
60725;BME280;59881;36.722;-4.462;2022-11-22T13:42:40;101345.13;;;21.54;34.94
60725;BME280;59881;36.722;-4.462;2022-11-22T13:45:18;101334.91;;;21.31;35.24
60725;BME280;59881;36.722;-4.462;2022-11-22T13:47:44;100924.53;;;18.65;35.39
60725;BME280;59881;36.722;-4.462;2022-11-22T13:55:42;101259.59;;;20.36;35.52
60725;BME280;59881;36.722;-4.462;2022-11-22T14:00:50;101347.19;;;20.62;34.33
60725;BME280;59881;36.722;-4.462;2022-11-22T14:03:23;101346.81;;;20.57;34.52
60725;BME280;59881;36.722;-4.462;2022-11-22T14:05:53;101352.06;;;20.49;34.50
60725;BME280;59881;36.722;-4.462;2022-11-22T14:15:59;101342.00;;;20.60;34.94
60725;BME280;59881;36.722;-4.462;2022-11-22T14:27:05;101346.59;;;20.68;35.29
60725;BME280;59881;36.722;-4.462;2022-11-22T14:32:23;101259.47;;;20.10;35.65
60725;BME280;59881;36.722;-4.462;2022-11-22T14:47:35;101265.75;;;19.63;35.34
60725;BME280;59881;36.722;-4.462;2022-11-22T14:50:04;101351.47;;;20.27;35.63